sensor_id;sensor_type;location;lat;lon;timestamp;P1;P2;P0
69222;PMS7003;56514;51.816;-0.026;2023-08-20T00:02:45;0.00;0.00;0.00
69222;PMS7003;56514;51.816;-0.026;2023-08-20T00:05:31;0.50;0.50;0.00
69222;PMS7003;56514;51.816;-0.026;2023-08-20T00:08:16;0.50;0.50;0.00
69222;PMS7003;56514;51.816;-0.026;2023-08-20T00:11:01;1.75;1.75;0.00
69222;PMS7003;56514;51.816;-0.026;2023-08-20T00:13:47;0.00;0.00;0.00
69222;PMS7003;56514;51.816;-0.026;2023-08-20T00:16:32;0.25;0.25;0.00
69222;PMS7003;56514;51.816;-0.026;2023-08-20T00:19:17;0.00;0.00;0.00
69222;PMS7003;56514;51.816;-0.026;2023-08-20T00:22:02;0.00;0.00;0.00
69222;PMS7003;56514;51.816;-0.026;2023-08-20T00:24:50;0.00;0.00;0.00
69222;PMS7003;56514;51.816;-0.026;2023-08-20T00:27:38;1.00;0.00;0.00
69222;PMS7003;56514;51.816;-0.026;2023-08-20T00:30:24;0.00;0.00;0.00
69222;PMS7003;56514;51.816;-0.026;2023-08-20T00:33:08;0.00;0.00;0.00
69222;PMS7003;56514;51.816;-0.026;2023-08-20T00:35:53;0.00;0.00;0.00
69222;PMS7003;56514;51.816;-0.026;2023-08-20T00:38:38;0.25;0.25;0.00
69222;PMS7003;56514;51.816;-0.026;2023-08-20T00:41:23;2.00;2.00;1.00
69222;PMS7003;56514;51.816;-0.026;2023-08-20T00:44:08;0.50;0.50;0.00
69222;PMS7003;56514;51.816;-0.026;2023-08-20T00:46:52;0.00;0.00;0.00
69222;PMS7003;56514;51.816;-0.026;2023-08-20T00:49:37;0.00;0.00;0.00
69222;PMS7003;56514;51.816;-0.026;2023-08-20T00:52:22;1.50;0.75;0.25
69222;PMS7003;56514;51.816;-0.026;2023-08-20T00:55:08;0.00;0.00;0.00
69222;PMS7003;56514;51.816;-0.026;2023-08-20T00:57:54;0.75;0.75;0.50
69222;PMS7003;56514;51.816;-0.026;2023-08-20T01:00:39;1.00;1.00;1.00
69222;PMS7003;56514;51.816;-0.026;2023-08-20T01:03:24;0.00;0.00;0.00
69222;PMS7003;56514;51.816;-0.026;2023-08-20T01:06:12;0.00;0.00;0.00
69222;PMS7003;56514;51.816;-0.026;2023-08-20T01:12:35;0.75;0.75;0.00
69222;PMS7003;56514;51.816;-0.026;2023-08-20T01:15:20;0.50;0.50;0.50
69222;PMS7003;56514;51.816;-0.026;2023-08-20T01:18:05;1.00;1.00;0.75
69222;PMS7003;56514;51.816;-0.026;2023-08-20T01:21:01;0.50;0.50;0.50
69222;PMS7003;56514;51.816;-0.026;2023-08-20T01:23:57;1.00;1.00;1.00
69222;PMS7003;56514;51.816;-0.026;2023-08-20T01:26:59;1.00;1.00;0.00
69222;PMS7003;56514;51.816;-0.026;2023-08-20T01:29:53;0.00;0.00;0.00
69222;PMS7003;56514;51.816;-0.026;2023-08-20T01:32:39;1.00;1.00;0.75
69222;PMS7003;56514;51.816;-0.026;2023-08-20T01:35:26;1.00;1.00;1.00
69222;PMS7003;56514;51.816;-0.026;2023-08-20T01:38:11;1.00;1.00;0.50
69222;PMS7003;56514;51.816;-0.026;2023-08-20T01:40:56;0.00;0.00;0.00
69222;PMS7003;56514;51.816;-0.026;2023-08-20T01:43:44;0.25;0.25;0.00
69222;PMS7003;56514;51.816;-0.026;2023-08-20T01:46:29;0.00;0.00;0.00
69222;PMS7003;56514;51.816;-0.026;2023-08-20T01:49:14;1.25;1.25;1.00
69222;PMS7003;56514;51.816;-0.026;2023-08-20T01:51:58;0.50;0.50;0.00
69222;PMS7003;56514;51.816;-0.026;2023-08-20T01:54:43;0.50;0.50;0.00
69222;PMS7003;56514;51.816;-0.026;2023-08-20T01:57:29;1.00;1.00;0.75
69222;PMS7003;56514;51.816;-0.026;2023-08-20T02:00:13;0.00;0.00;0.00
69222;PMS7003;56514;51.816;-0.026;2023-08-20T02:02:59;1.00;1.00;0.75
69222;PMS7003;56514;51.816;-0.026;2023-08-20T02:05:43;0.00;0.00;0.00
69222;PMS7003;56514;51.816;-0.026;2023-08-20T02:08:28;1.00;1.00;1.00
69222;PMS7003;56514;51.816;-0.026;2023-08-20T02:11:13;1.00;1.00;1.00
69222;PMS7003;56514;51.816;-0.026;2023-08-20T02:13:58;1.00;1.00;0.75
69222;PMS7003;56514;51.816;-0.026;2023-08-20T02:16:43;1.25;1.25;0.75
69222;PMS7003;56514;51.816;-0.026;2023-08-20T02:19:28;1.00;1.00;1.00
69222;PMS7003;56514;51.816;-0.026;2023-08-20T02:22:13;0.00;0.00;0.00
69222;PMS7003;56514;51.816;-0.026;2023-08-20T02:24:57;1.00;1.00;1.00
69222;PMS7003;56514;51.816;-0.026;2023-08-20T02:27:42;2.50;1.75;0.75
69222;PMS7003;56514;51.816;-0.026;2023-08-20T02:30:27;1.00;1.00;0.50
69222;PMS7003;56514;51.816;-0.026;2023-08-20T02:33:12;1.00;1.00;0.50
69222;PMS7003;56514;51.816;-0.026;2023-08-20T02:36:01;0.75;0.75;0.50
69222;PMS7003;56514;51.816;-0.026;2023-08-20T02:38:47;0.25;0.25;0.00
69222;PMS7003;56514;51.816;-0.026;2023-08-20T02:41:32;1.00;1.00;1.00
69222;PMS7003;56514;51.816;-0.026;2023-08-20T02:44:17;1.50;1.50;1.00
69222;PMS7003;56514;51.816;-0.026;2023-08-20T02:47:02;1.00;1.00;1.00
69222;PMS7003;56514;51.816;-0.026;2023-08-20T02:49:47;0.25;0.25;0.25
69222;PMS7003;56514;51.816;-0.026;2023-08-20T02:52:31;0.75;0.75;0.50
69222;PMS7003;56514;51.816;-0.026;2023-08-20T02:55:16;0.75;0.75;0.75
69222;PMS7003;56514;51.816;-0.026;2023-08-20T02:58:01;0.00;0.00;0.00
69222;PMS7003;56514;51.816;-0.026;2023-08-20T03:00:52;1.25;1.25;0.75
69222;PMS7003;56514;51.816;-0.026;2023-08-20T03:03:37;0.00;0.00;0.00
69222;PMS7003;56514;51.816;-0.026;2023-08-20T03:06:22;1.00;1.00;1.00
69222;PMS7003;56514;51.816;-0.026;2023-08-20T03:09:07;2.00;2.00;0.00
69222;PMS7003;56514;51.816;-0.026;2023-08-20T03:11:52;0.00;0.00;0.00
69222;PMS7003;56514;51.816;-0.026;2023-08-20T03:14:36;1.00;1.00;1.00
69222;PMS7003;56514;51.816;-0.026;2023-08-20T03:17:22;0.00;0.00;0.00
69222;PMS7003;56514;51.816;-0.026;2023-08-20T03:20:06;1.00;1.00;1.00
69222;PMS7003;56514;51.816;-0.026;2023-08-20T03:22:52;1.00;1.00;0.00
69222;PMS7003;56514;51.816;-0.026;2023-08-20T03:25:37;0.00;0.00;0.00
69222;PMS7003;56514;51.816;-0.026;2023-08-20T03:28:23;0.25;0.25;0.25
69222;PMS7003;56514;51.816;-0.026;2023-08-20T03:31:07;0.50;0.50;0.50
69222;PMS7003;56514;51.816;-0.026;2023-08-20T03:33:52;1.00;1.00;0.00
69222;PMS7003;56514;51.816;-0.026;2023-08-20T03:36:37;1.00;1.00;0.75
69222;PMS7003;56514;51.816;-0.026;2023-08-20T03:39:22;0.00;0.00;0.00
69222;PMS7003;56514;51.816;-0.026;2023-08-20T03:42:06;0.50;0.50;0.00
69222;PMS7003;56514;51.816;-0.026;2023-08-20T03:44:51;1.00;1.00;0.75
69222;PMS7003;56514;51.816;-0.026;2023-08-20T03:47:36;1.00;1.00;1.00
69222;PMS7003;56514;51.816;-0.026;2023-08-20T03:50:21;0.00;0.00;0.00
69222;PMS7003;56514;51.816;-0.026;2023-08-20T03:53:06;0.75;0.75;0.75
69222;PMS7003;56514;51.816;-0.026;2023-08-20T03:55:51;1.00;1.00;1.00
69222;PMS7003;56514;51.816;-0.026;2023-08-20T03:58:36;1.00;1.00;1.00
69222;PMS7003;56514;51.816;-0.026;2023-08-20T04:01:21;0.25;0.25;0.25
69222;PMS7003;56514;51.816;-0.026;2023-08-20T04:04:06;1.00;1.00;0.50
69222;PMS7003;56514;51.816;-0.026;2023-08-20T04:06:51;1.50;1.50;1.25
69222;PMS7003;56514;51.816;-0.026;2023-08-20T04:09:35;1.25;1.25;1.00
69222;PMS7003;56514;51.816;-0.026;2023-08-20T04:12:20;2.00;1.00;1.00
69222;PMS7003;56514;51.816;-0.026;2023-08-20T04:15:06;1.00;1.00;1.00
69222;PMS7003;56514;51.816;-0.026;2023-08-20T04:17:51;1.00;1.00;1.00
69222;PMS7003;56514;51.816;-0.026;2023-08-20T04:20:36;0.50;0.50;0.25
69222;PMS7003;56514;51.816;-0.026;2023-08-20T04:23:20;0.75;0.75;0.75
69222;PMS7003;56514;51.816;-0.026;2023-08-20T04:26:05;1.00;1.00;0.00
69222;PMS7003;56514;51.816;-0.026;2023-08-20T04:28:50;0.00;0.00;0.00
69222;PMS7003;56514;51.816;-0.026;2023-08-20T04:31:35;0.00;0.00;0.00
69222;PMS7003;56514;51.816;-0.026;2023-08-20T04:34:19;1.00;1.00;0.00
69222;PMS7003;56514;51.816;-0.026;2023-08-20T04:37:04;0.50;0.50;0.50
69222;PMS7003;56514;51.816;-0.026;2023-08-20T04:39:49;0.00;0.00;0.00
69222;PMS7003;56514;51.816;-0.026;2023-08-20T04:42:34;0.00;0.00;0.00
69222;PMS7003;56514;51.816;-0.026;2023-08-20T04:45:18;0.00;0.00;0.00
69222;PMS7003;56514;51.816;-0.026;2023-08-20T04:48:04;0.00;0.00;0.00
69222;PMS7003;56514;51.816;-0.026;2023-08-20T04:50:49;0.00;0.00;0.00
69222;PMS7003;56514;51.816;-0.026;2023-08-20T04:53:34;0.00;0.00;0.00
69222;PMS7003;56514;51.816;-0.026;2023-08-20T04:56:19;0.00;0.00;0.00
69222;PMS7003;56514;51.816;-0.026;2023-08-20T04:59:03;1.00;1.00;0.75
69222;PMS7003;56514;51.816;-0.026;2023-08-20T05:01:48;0.00;0.00;0.00
69222;PMS7003;56514;51.816;-0.026;2023-08-20T05:04:33;0.00;0.00;0.00
69222;PMS7003;56514;51.816;-0.026;2023-08-20T05:07:17;0.00;0.00;0.00
69222;PMS7003;56514;51.816;-0.026;2023-08-20T05:10:02;0.00;0.00;0.00
69222;PMS7003;56514;51.816;-0.026;2023-08-20T05:12:47;0.00;0.00;0.00
69222;PMS7003;56514;51.816;-0.026;2023-08-20T05:15:33;0.00;0.00;0.00
69222;PMS7003;56514;51.816;-0.026;2023-08-20T05:18:17;0.00;0.00;0.00
69222;PMS7003;56514;51.816;-0.026;2023-08-20T05:21:02;0.00;0.00;0.00
69222;PMS7003;56514;51.816;-0.026;2023-08-20T05:23:47;0.00;0.00;0.00
69222;PMS7003;56514;51.816;-0.026;2023-08-20T05:26:31;0.25;0.25;0.00
69222;PMS7003;56514;51.816;-0.026;2023-08-20T05:29:16;0.50;0.50;0.50
69222;PMS7003;56514;51.816;-0.026;2023-08-20T05:32:01;1.00;1.00;0.75
69222;PMS7003;56514;51.816;-0.026;2023-08-20T05:34:46;0.75;0.75;0.75
69222;PMS7003;56514;51.816;-0.026;2023-08-20T05:37:30;1.00;0.75;0.25
69222;PMS7003;56514;51.816;-0.026;2023-08-20T05:40:15;1.00;1.00;1.00
69222;PMS7003;56514;51.816;-0.026;2023-08-20T05:43:00;0.25;0.25;0.00
69222;PMS7003;56514;51.816;-0.026;2023-08-20T05:45:45;1.00;1.00;1.00
69222;PMS7003;56514;51.816;-0.026;2023-08-20T05:48:30;0.25;0.25;0.00
69222;PMS7003;56514;51.816;-0.026;2023-08-20T05:51:15;0.00;0.00;0.00
69222;PMS7003;56514;51.816;-0.026;2023-08-20T05:54:00;1.00;1.00;1.00
69222;PMS7003;56514;51.816;-0.026;2023-08-20T05:56:45;0.25;0.25;0.25
69222;PMS7003;56514;51.816;-0.026;2023-08-20T05:59:30;1.00;1.00;0.50
69222;PMS7003;56514;51.816;-0.026;2023-08-20T06:02:17;1.00;1.00;1.00
69222;PMS7003;56514;51.816;-0.026;2023-08-20T06:05:03;1.00;1.00;1.00
69222;PMS7003;56514;51.816;-0.026;2023-08-20T06:07:53;0.00;0.00;0.00
69222;PMS7003;56514;51.816;-0.026;2023-08-20T06:10:37;1.00;1.00;1.00
69222;PMS7003;56514;51.816;-0.026;2023-08-20T06:13:22;1.00;1.00;0.75
69222;PMS7003;56514;51.816;-0.026;2023-08-20T06:16:07;3.00;3.00;1.75
69222;PMS7003;56514;51.816;-0.026;2023-08-20T06:18:52;3.25;2.25;2.00
69222;PMS7003;56514;51.816;-0.026;2023-08-20T06:21:36;2.25;2.25;2.00
69222;PMS7003;56514;51.816;-0.026;2023-08-20T06:24:21;3.50;3.50;2.00
69222;PMS7003;56514;51.816;-0.026;2023-08-20T06:27:06;4.00;4.00;3.00
69222;PMS7003;56514;51.816;-0.026;2023-08-20T06:29:50;5.00;5.00;3.00
69222;PMS7003;56514;51.816;-0.026;2023-08-20T06:32:35;1.75;1.75;1.25
69222;PMS7003;56514;51.816;-0.026;2023-08-20T06:35:20;2.75;2.75;2.00
69222;PMS7003;56514;51.816;-0.026;2023-08-20T06:38:05;5.00;5.00;4.50
69222;PMS7003;56514;51.816;-0.026;2023-08-20T06:40:50;1.50;1.50;1.25
69222;PMS7003;56514;51.816;-0.026;2023-08-20T06:43:34;2.00;2.00;2.00
69222;PMS7003;56514;51.816;-0.026;2023-08-20T06:46:19;2.75;2.75;1.75
69222;PMS7003;56514;51.816;-0.026;2023-08-20T06:49:04;3.50;3.50;2.25
69222;PMS7003;56514;51.816;-0.026;2023-08-20T06:51:49;3.00;3.00;2.75
69222;PMS7003;56514;51.816;-0.026;2023-08-20T06:54:33;3.00;3.00;2.75
69222;PMS7003;56514;51.816;-0.026;2023-08-20T06:57:19;2.50;2.50;2.25
69222;PMS7003;56514;51.816;-0.026;2023-08-20T07:00:03;3.50;3.50;2.75
69222;PMS7003;56514;51.816;-0.026;2023-08-20T07:02:49;2.00;2.00;2.00
69222;PMS7003;56514;51.816;-0.026;2023-08-20T07:05:34;3.00;3.00;2.00
69222;PMS7003;56514;51.816;-0.026;2023-08-20T07:08:19;2.00;2.00;2.00
69222;PMS7003;56514;51.816;-0.026;2023-08-20T07:11:03;1.75;1.75;1.00
69222;PMS7003;56514;51.816;-0.026;2023-08-20T07:13:48;2.00;2.00;1.00
69222;PMS7003;56514;51.816;-0.026;2023-08-20T07:16:33;2.25;2.25;2.00
69222;PMS7003;56514;51.816;-0.026;2023-08-20T07:19:17;1.75;1.75;1.75
69222;PMS7003;56514;51.816;-0.026;2023-08-20T07:22:02;2.00;2.00;1.00
69222;PMS7003;56514;51.816;-0.026;2023-08-20T07:24:47;3.00;3.00;2.00
69222;PMS7003;56514;51.816;-0.026;2023-08-20T07:27:32;1.50;1.50;1.00
69222;PMS7003;56514;51.816;-0.026;2023-08-20T07:30:16;2.25;2.25;2.00
69222;PMS7003;56514;51.816;-0.026;2023-08-20T07:33:01;2.00;2.00;1.00
69222;PMS7003;56514;51.816;-0.026;2023-08-20T07:35:47;2.25;2.25;1.75
69222;PMS7003;56514;51.816;-0.026;2023-08-20T07:38:32;1.00;1.00;0.00
69222;PMS7003;56514;51.816;-0.026;2023-08-20T07:41:18;1.00;1.00;1.00
69222;PMS7003;56514;51.816;-0.026;2023-08-20T07:44:06;2.50;2.50;1.75
69222;PMS7003;56514;51.816;-0.026;2023-08-20T07:46:51;1.00;1.00;1.00
69222;PMS7003;56514;51.816;-0.026;2023-08-20T07:49:36;1.00;1.00;1.00
69222;PMS7003;56514;51.816;-0.026;2023-08-20T07:52:20;1.25;1.25;1.00
69222;PMS7003;56514;51.816;-0.026;2023-08-20T07:55:05;0.50;0.50;0.50
69222;PMS7003;56514;51.816;-0.026;2023-08-20T07:57:50;1.00;1.00;0.75
69222;PMS7003;56514;51.816;-0.026;2023-08-20T08:00:37;0.00;0.00;0.00
69222;PMS7003;56514;51.816;-0.026;2023-08-20T08:03:21;1.00;1.00;1.00
69222;PMS7003;56514;51.816;-0.026;2023-08-20T08:06:06;0.50;0.50;0.00
69222;PMS7003;56514;51.816;-0.026;2023-08-20T08:08:51;2.00;2.00;1.00
69222;PMS7003;56514;51.816;-0.026;2023-08-20T08:11:36;1.50;1.50;0.75
69222;PMS7003;56514;51.816;-0.026;2023-08-20T08:14:21;1.50;1.00;1.00
69222;PMS7003;56514;51.816;-0.026;2023-08-20T08:17:06;2.00;2.00;1.00
69222;PMS7003;56514;51.816;-0.026;2023-08-20T08:19:52;2.00;2.00;1.00
69222;PMS7003;56514;51.816;-0.026;2023-08-20T08:22:38;1.00;1.00;0.75
69222;PMS7003;56514;51.816;-0.026;2023-08-20T08:25:24;0.75;0.75;0.75
69222;PMS7003;56514;51.816;-0.026;2023-08-20T08:28:10;1.00;1.00;0.00
69222;PMS7003;56514;51.816;-0.026;2023-08-20T08:30:54;0.25;0.25;0.25
69222;PMS7003;56514;51.816;-0.026;2023-08-20T08:33:39;1.00;1.00;1.00
69222;PMS7003;56514;51.816;-0.026;2023-08-20T08:36:24;0.80;0.80;0.40
69222;PMS7003;56514;51.816;-0.026;2023-08-20T08:39:09;1.25;1.25;0.75
69222;PMS7003;56514;51.816;-0.026;2023-08-20T08:41:56;1.00;1.00;0.50
69222;PMS7003;56514;51.816;-0.026;2023-08-20T08:44:47;1.00;1.00;1.00
69222;PMS7003;56514;51.816;-0.026;2023-08-20T08:47:34;1.00;1.00;1.00
69222;PMS7003;56514;51.816;-0.026;2023-08-20T08:50:20;1.00;1.00;0.25
69222;PMS7003;56514;51.816;-0.026;2023-08-20T08:53:05;1.00;1.00;0.50
69222;PMS7003;56514;51.816;-0.026;2023-08-20T08:55:51;0.00;0.00;0.00
69222;PMS7003;56514;51.816;-0.026;2023-08-20T08:58:37;1.00;1.00;0.00
69222;PMS7003;56514;51.816;-0.026;2023-08-20T09:01:22;1.00;1.00;0.00
69222;PMS7003;56514;51.816;-0.026;2023-08-20T09:04:07;1.00;1.00;1.00
69222;PMS7003;56514;51.816;-0.026;2023-08-20T09:06:52;1.00;1.00;1.00
69222;PMS7003;56514;51.816;-0.026;2023-08-20T09:09:44;0.00;0.00;0.00
69222;PMS7003;56514;51.816;-0.026;2023-08-20T09:12:30;0.00;0.00;0.00
69222;PMS7003;56514;51.816;-0.026;2023-08-20T09:15:19;0.00;0.00;0.00
69222;PMS7003;56514;51.816;-0.026;2023-08-20T09:18:03;0.00;0.00;0.00
69222;PMS7003;56514;51.816;-0.026;2023-08-20T09:20:49;1.00;1.00;0.00
69222;PMS7003;56514;51.816;-0.026;2023-08-20T09:23:34;0.00;0.00;0.00
69222;PMS7003;56514;51.816;-0.026;2023-08-20T09:26:20;1.00;1.00;1.00
69222;PMS7003;56514;51.816;-0.026;2023-08-20T09:29:05;0.80;0.80;0.00
69222;PMS7003;56514;51.816;-0.026;2023-08-20T09:31:50;1.00;1.00;1.00
69222;PMS7003;56514;51.816;-0.026;2023-08-20T09:34:46;0.00;0.00;0.00
69222;PMS7003;56514;51.816;-0.026;2023-08-20T09:37:32;0.50;0.50;0.25
69222;PMS7003;56514;51.816;-0.026;2023-08-20T09:40:18;0.00;0.00;0.00
69222;PMS7003;56514;51.816;-0.026;2023-08-20T09:43:03;0.25;0.25;0.00
69222;PMS7003;56514;51.816;-0.026;2023-08-20T09:45:52;0.00;0.00;0.00
69222;PMS7003;56514;51.816;-0.026;2023-08-20T09:48:39;0.40;0.40;0.00
69222;PMS7003;56514;51.816;-0.026;2023-08-20T09:51:27;1.00;1.00;1.00
69222;PMS7003;56514;51.816;-0.026;2023-08-20T09:54:19;0.50;0.50;0.00
69222;PMS7003;56514;51.816;-0.026;2023-08-20T09:57:14;0.75;0.75;0.75
69222;PMS7003;56514;51.816;-0.026;2023-08-20T10:00:09;0.60;0.60;0.00
69222;PMS7003;56514;51.816;-0.026;2023-08-20T10:02:56;0.00;0.00;0.00
69222;PMS7003;56514;51.816;-0.026;2023-08-20T10:05:42;0.00;0.00;0.00
69222;PMS7003;56514;51.816;-0.026;2023-08-20T10:08:28;0.00;0.00;0.00
69222;PMS7003;56514;51.816;-0.026;2023-08-20T10:11:13;0.60;0.60;0.60
69222;PMS7003;56514;51.816;-0.026;2023-08-20T10:13:58;0.25;0.25;0.25
69222;PMS7003;56514;51.816;-0.026;2023-08-20T10:16:43;0.00;0.00;0.00
69222;PMS7003;56514;51.816;-0.026;2023-08-20T10:19:29;1.00;1.00;0.00
69222;PMS7003;56514;51.816;-0.026;2023-08-20T10:22:14;0.00;0.00;0.00
69222;PMS7003;56514;51.816;-0.026;2023-08-20T10:24:59;0.00;0.00;0.00
69222;PMS7003;56514;51.816;-0.026;2023-08-20T10:27:47;0.00;0.00;0.00
69222;PMS7003;56514;51.816;-0.026;2023-08-20T10:30:32;0.00;0.00;0.00
69222;PMS7003;56514;51.816;-0.026;2023-08-20T10:33:17;0.00;0.00;0.00
69222;PMS7003;56514;51.816;-0.026;2023-08-20T10:36:07;0.00;0.00;0.00
69222;PMS7003;56514;51.816;-0.026;2023-08-20T10:38:53;0.00;0.00;0.00
69222;PMS7003;56514;51.816;-0.026;2023-08-20T10:41:43;1.00;1.00;0.00
69222;PMS7003;56514;51.816;-0.026;2023-08-20T10:44:29;0.00;0.00;0.00
69222;PMS7003;56514;51.816;-0.026;2023-08-20T10:47:41;0.00;0.00;0.00
69222;PMS7003;56514;51.816;-0.026;2023-08-20T10:50:28;0.20;0.20;0.00
69222;PMS7003;56514;51.816;-0.026;2023-08-20T10:53:14;0.00;0.00;0.00
69222;PMS7003;56514;51.816;-0.026;2023-08-20T10:56:15;0.00;0.00;0.00
69222;PMS7003;56514;51.816;-0.026;2023-08-20T10:59:00;0.00;0.00;0.00
69222;PMS7003;56514;51.816;-0.026;2023-08-20T11:01:52;0.00;0.00;0.00
69222;PMS7003;56514;51.816;-0.026;2023-08-20T11:04:39;0.40;0.40;0.40
69222;PMS7003;56514;51.816;-0.026;2023-08-20T11:07:25;0.60;0.60;0.40
69222;PMS7003;56514;51.816;-0.026;2023-08-20T11:10:12;0.00;0.00;0.00
69222;PMS7003;56514;51.816;-0.026;2023-08-20T11:12:59;0.80;0.80;0.00
69222;PMS7003;56514;51.816;-0.026;2023-08-20T11:15:47;0.80;0.80;0.00
69222;PMS7003;56514;51.816;-0.026;2023-08-20T11:18:32;1.00;1.00;0.00
69222;PMS7003;56514;51.816;-0.026;2023-08-20T11:21:18;0.00;0.00;0.00
69222;PMS7003;56514;51.816;-0.026;2023-08-20T11:24:04;0.00;0.00;0.00
69222;PMS7003;56514;51.816;-0.026;2023-08-20T11:26:50;0.00;0.00;0.00
69222;PMS7003;56514;51.816;-0.026;2023-08-20T11:29:41;0.00;0.00;0.00
69222;PMS7003;56514;51.816;-0.026;2023-08-20T11:32:29;0.00;0.00;0.00
69222;PMS7003;56514;51.816;-0.026;2023-08-20T11:35:15;1.00;1.00;1.00
69222;PMS7003;56514;51.816;-0.026;2023-08-20T11:38:02;0.00;0.00;0.00
69222;PMS7003;56514;51.816;-0.026;2023-08-20T11:40:48;0.00;0.00;0.00
69222;PMS7003;56514;51.816;-0.026;2023-08-20T11:43:33;0.00;0.00;0.00
69222;PMS7003;56514;51.816;-0.026;2023-08-20T11:46:19;0.00;0.00;0.00
69222;PMS7003;56514;51.816;-0.026;2023-08-20T11:49:07;0.00;0.00;0.00
69222;PMS7003;56514;51.816;-0.026;2023-08-20T11:51:52;0.00;0.00;0.00
69222;PMS7003;56514;51.816;-0.026;2023-08-20T11:54:41;0.00;0.00;0.00
69222;PMS7003;56514;51.816;-0.026;2023-08-20T11:57:30;0.00;0.00;0.00
69222;PMS7003;56514;51.816;-0.026;2023-08-20T12:00:23;0.00;0.00;0.00
69222;PMS7003;56514;51.816;-0.026;2023-08-20T12:03:12;0.00;0.00;0.00
69222;PMS7003;56514;51.816;-0.026;2023-08-20T12:05:57;0.00;0.00;0.00
69222;PMS7003;56514;51.816;-0.026;2023-08-20T12:08:43;0.00;0.00;0.00
69222;PMS7003;56514;51.816;-0.026;2023-08-20T12:11:28;0.00;0.00;0.00
69222;PMS7003;56514;51.816;-0.026;2023-08-20T12:14:13;0.00;0.00;0.00
69222;PMS7003;56514;51.816;-0.026;2023-08-20T12:16:58;0.00;0.00;0.00
69222;PMS7003;56514;51.816;-0.026;2023-08-20T12:19:44;0.00;0.00;0.00
69222;PMS7003;56514;51.816;-0.026;2023-08-20T12:22:29;0.00;0.00;0.00
69222;PMS7003;56514;51.816;-0.026;2023-08-20T12:25:14;1.00;0.00;0.00
69222;PMS7003;56514;51.816;-0.026;2023-08-20T12:28:02;0.00;0.00;0.00
69222;PMS7003;56514;51.816;-0.026;2023-08-20T12:30:49;0.00;0.00;0.00
69222;PMS7003;56514;51.816;-0.026;2023-08-20T12:33:33;0.00;0.00;0.00
69222;PMS7003;56514;51.816;-0.026;2023-08-20T12:36:18;0.00;0.00;0.00
69222;PMS7003;56514;51.816;-0.026;2023-08-20T12:39:03;0.00;0.00;0.00
69222;PMS7003;56514;51.816;-0.026;2023-08-20T12:41:51;0.00;0.00;0.00
69222;PMS7003;56514;51.816;-0.026;2023-08-20T12:44:36;0.00;0.00;0.00
69222;PMS7003;56514;51.816;-0.026;2023-08-20T12:47:20;0.00;0.00;0.00
69222;PMS7003;56514;51.816;-0.026;2023-08-20T12:50:06;0.00;0.00;0.00
69222;PMS7003;56514;51.816;-0.026;2023-08-20T12:52:51;0.00;0.00;0.00
69222;PMS7003;56514;51.816;-0.026;2023-08-20T12:55:37;0.00;0.00;0.00
69222;PMS7003;56514;51.816;-0.026;2023-08-20T12:58:23;0.00;0.00;0.00
69222;PMS7003;56514;51.816;-0.026;2023-08-20T13:01:09;0.00;0.00;0.00
69222;PMS7003;56514;51.816;-0.026;2023-08-20T13:03:54;0.00;0.00;0.00
69222;PMS7003;56514;51.816;-0.026;2023-08-20T13:06:39;0.00;0.00;0.00
69222;PMS7003;56514;51.816;-0.026;2023-08-20T13:09:26;0.00;0.00;0.00
69222;PMS7003;56514;51.816;-0.026;2023-08-20T13:12:11;0.00;0.00;0.00
69222;PMS7003;56514;51.816;-0.026;2023-08-20T13:14:56;0.00;0.00;0.00
69222;PMS7003;56514;51.816;-0.026;2023-08-20T13:17:47;0.00;0.00;0.00
69222;PMS7003;56514;51.816;-0.026;2023-08-20T13:20:33;0.00;0.00;0.00
69222;PMS7003;56514;51.816;-0.026;2023-08-20T13:23:19;0.00;0.00;0.00
69222;PMS7003;56514;51.816;-0.026;2023-08-20T13:26:05;0.00;0.00;0.00
69222;PMS7003;56514;51.816;-0.026;2023-08-20T13:28:49;0.00;0.00;0.00
69222;PMS7003;56514;51.816;-0.026;2023-08-20T13:31:34;0.00;0.00;0.00
69222;PMS7003;56514;51.816;-0.026;2023-08-20T13:34:20;0.00;0.00;0.00
69222;PMS7003;56514;51.816;-0.026;2023-08-20T13:37:04;0.00;0.00;0.00
69222;PMS7003;56514;51.816;-0.026;2023-08-20T13:39:49;0.00;0.00;0.00
69222;PMS7003;56514;51.816;-0.026;2023-08-20T13:42:34;0.00;0.00;0.00
69222;PMS7003;56514;51.816;-0.026;2023-08-20T13:45:19;0.00;0.00;0.00
69222;PMS7003;56514;51.816;-0.026;2023-08-20T13:48:04;0.00;0.00;0.00
69222;PMS7003;56514;51.816;-0.026;2023-08-20T13:50:49;0.00;0.00;0.00
69222;PMS7003;56514;51.816;-0.026;2023-08-20T13:53:34;0.00;0.00;0.00
69222;PMS7003;56514;51.816;-0.026;2023-08-20T13:56:19;0.00;0.00;0.00
69222;PMS7003;56514;51.816;-0.026;2023-08-20T13:59:03;0.00;0.00;0.00
69222;PMS7003;56514;51.816;-0.026;2023-08-20T14:01:48;0.00;0.00;0.00
69222;PMS7003;56514;51.816;-0.026;2023-08-20T14:04:33;0.00;0.00;0.00
69222;PMS7003;56514;51.816;-0.026;2023-08-20T14:07:18;0.00;0.00;0.00
69222;PMS7003;56514;51.816;-0.026;2023-08-20T14:10:03;0.00;0.00;0.00
69222;PMS7003;56514;51.816;-0.026;2023-08-20T14:12:48;0.00;0.00;0.00
69222;PMS7003;56514;51.816;-0.026;2023-08-20T14:15:33;0.00;0.00;0.00
69222;PMS7003;56514;51.816;-0.026;2023-08-20T14:18:18;0.00;0.00;0.00
69222;PMS7003;56514;51.816;-0.026;2023-08-20T14:21:03;0.00;0.00;0.00
69222;PMS7003;56514;51.816;-0.026;2023-08-20T14:23:48;0.00;0.00;0.00
69222;PMS7003;56514;51.816;-0.026;2023-08-20T14:26:32;0.00;0.00;0.00
69222;PMS7003;56514;51.816;-0.026;2023-08-20T14:29:17;0.60;0.60;0.60
69222;PMS7003;56514;51.816;-0.026;2023-08-20T14:32:03;0.00;0.00;0.00
69222;PMS7003;56514;51.816;-0.026;2023-08-20T14:34:48;0.00;0.00;0.00
69222;PMS7003;56514;51.816;-0.026;2023-08-20T14:37:33;0.00;0.00;0.00
69222;PMS7003;56514;51.816;-0.026;2023-08-20T14:40:17;0.00;0.00;0.00
69222;PMS7003;56514;51.816;-0.026;2023-08-20T14:43:02;0.00;0.00;0.00
69222;PMS7003;56514;51.816;-0.026;2023-08-20T14:45:48;0.00;0.00;0.00
69222;PMS7003;56514;51.816;-0.026;2023-08-20T14:48:33;0.20;0.20;0.00
69222;PMS7003;56514;51.816;-0.026;2023-08-20T14:51:19;0.00;0.00;0.00
69222;PMS7003;56514;51.816;-0.026;2023-08-20T14:54:04;0.00;0.00;0.00
69222;PMS7003;56514;51.816;-0.026;2023-08-20T14:56:50;0.00;0.00;0.00
69222;PMS7003;56514;51.816;-0.026;2023-08-20T14:59:35;0.00;0.00;0.00
69222;PMS7003;56514;51.816;-0.026;2023-08-20T15:02:20;1.20;1.20;1.00
69222;PMS7003;56514;51.816;-0.026;2023-08-20T15:05:04;0.00;0.00;0.00
69222;PMS7003;56514;51.816;-0.026;2023-08-20T15:07:50;0.00;0.00;0.00
69222;PMS7003;56514;51.816;-0.026;2023-08-20T15:10:35;0.00;0.00;0.00
69222;PMS7003;56514;51.816;-0.026;2023-08-20T15:13:19;0.80;0.80;0.80
69222;PMS7003;56514;51.816;-0.026;2023-08-20T15:16:04;0.20;0.20;0.20
69222;PMS7003;56514;51.816;-0.026;2023-08-20T15:18:49;0.00;0.00;0.00
69222;PMS7003;56514;51.816;-0.026;2023-08-20T15:21:34;0.00;0.00;0.00
69222;PMS7003;56514;51.816;-0.026;2023-08-20T15:24:19;0.00;0.00;0.00
69222;PMS7003;56514;51.816;-0.026;2023-08-20T15:27:03;0.00;0.00;0.00
69222;PMS7003;56514;51.816;-0.026;2023-08-20T15:29:48;0.00;0.00;0.00
69222;PMS7003;56514;51.816;-0.026;2023-08-20T15:32:33;0.00;0.00;0.00
69222;PMS7003;56514;51.816;-0.026;2023-08-20T15:35:19;0.00;0.00;0.00
69222;PMS7003;56514;51.816;-0.026;2023-08-20T15:38:04;0.00;0.00;0.00
69222;PMS7003;56514;51.816;-0.026;2023-08-20T15:40:48;0.00;0.00;0.00
69222;PMS7003;56514;51.816;-0.026;2023-08-20T15:43:33;0.00;0.00;0.00
69222;PMS7003;56514;51.816;-0.026;2023-08-20T15:46:18;0.00;0.00;0.00
69222;PMS7003;56514;51.816;-0.026;2023-08-20T15:49:03;0.00;0.00;0.00
69222;PMS7003;56514;51.816;-0.026;2023-08-20T15:51:48;0.00;0.00;0.00
69222;PMS7003;56514;51.816;-0.026;2023-08-20T15:54:34;0.00;0.00;0.00
69222;PMS7003;56514;51.816;-0.026;2023-08-20T15:57:19;0.00;0.00;0.00
69222;PMS7003;56514;51.816;-0.026;2023-08-20T16:00:04;0.00;0.00;0.00